createdAt,value
2023-02-04T00:02:06.741Z,101703.41
2023-02-04T00:04:33.334Z,101706.88
2023-02-04T00:06:59.909Z,101713.81
2023-02-04T00:09:26.482Z,101713.03
2023-02-04T00:11:53.250Z,101712.13
2023-02-04T00:14:19.805Z,101715.59
2023-02-04T00:16:46.470Z,101714.72
2023-02-04T00:19:13.142Z,101719.91
2023-02-04T00:21:39.570Z,101718.22
2023-02-04T00:24:06.248Z,101724.25
2023-02-04T00:26:32.801Z,101723.41
2023-02-04T00:28:59.612Z,101719.91
2023-02-04T00:31:26.367Z,101727.72
2023-02-04T00:33:53.132Z,101732.94
2023-02-04T00:36:19.558Z,101732.06
2023-02-04T00:38:46.685Z,101723.44
2023-02-04T00:41:13.268Z,101736.44
2023-02-04T00:43:40.433Z,101741.66
2023-02-04T00:46:08.104Z,101736.44
2023-02-04T00:48:35.577Z,101733.84
2023-02-04T00:51:02.839Z,101730.38
2023-02-04T00:53:29.355Z,101729.50
2023-02-04T00:55:57.462Z,101733.84
2023-02-04T00:58:24.132Z,101731.25
2023-02-04T01:00:51.285Z,101728.66
2023-02-04T01:03:17.904Z,101742.50
2023-02-04T01:05:44.504Z,101736.44
2023-02-04T01:08:11.613Z,101739.91
2023-02-04T01:10:38.120Z,101750.31
2023-02-04T01:13:07.798Z,101756.41
2023-02-04T01:15:35.473Z,101761.59
2023-02-04T01:18:01.987Z,101759.91
2023-02-04T01:20:28.718Z,101757.31
2023-02-04T01:22:55.933Z,101761.63
2023-02-04T01:25:22.489Z,101764.25
2023-02-04T01:27:49.124Z,101764.25
2023-02-04T01:30:15.985Z,101774.63
2023-02-04T01:32:43.018Z,101766.84
2023-02-04T01:35:09.793Z,101765.97
2023-02-04T01:37:36.287Z,101766.84
2023-02-04T01:40:03.626Z,101779.84
2023-02-04T01:42:30.449Z,101776.38
2023-02-04T01:44:56.984Z,101788.53
2023-02-04T01:47:45.973Z,101782.44
2023-02-04T01:50:33.087Z,101785.06
2023-02-04T01:53:26.459Z,101781.59
2023-02-04T01:56:22.956Z,101785.06
2023-02-04T01:59:13.816Z,101788.53
2023-02-04T02:02:03.390Z,101792.88
2023-02-04T02:04:32.314Z,101798.06
2023-02-04T02:07:05.050Z,101796.38
2023-02-04T02:09:32.899Z,101790.31
2023-02-04T02:12:01.812Z,101789.44
2023-02-04T02:14:28.597Z,101794.66
2023-02-04T02:16:55.536Z,101784.25
2023-02-04T02:19:35.268Z,101779.06
2023-02-04T02:22:15.311Z,101783.41
2023-02-04T02:24:42.133Z,101783.38
2023-02-04T02:27:11.592Z,101783.41
2023-02-04T02:29:40.915Z,101786.00
2023-02-04T02:32:09.169Z,101790.34
2023-02-04T02:34:36.368Z,101796.41
2023-02-04T02:37:04.145Z,101794.66
2023-02-04T02:39:30.921Z,101805.06
2023-02-04T02:42:00.213Z,101802.47
2023-02-04T02:44:27.890Z,101805.06
2023-02-04T02:46:56.776Z,101805.06
2023-02-04T02:49:23.393Z,101799.00
2023-02-04T02:51:50.594Z,101809.38
2023-02-04T02:54:27.337Z,101807.66
2023-02-04T02:56:58.629Z,101809.41
2023-02-04T02:59:26.353Z,101814.59
2023-02-04T03:02:02.048Z,101822.38
2023-02-04T03:04:34.801Z,101819.81
2023-02-04T03:07:02.421Z,101811.16
2023-02-04T03:09:29.674Z,101821.56
2023-02-04T03:11:56.421Z,101812.91
2023-02-04T03:14:25.233Z,101823.28
2023-02-04T03:16:54.524Z,101829.34
2023-02-04T03:19:23.584Z,101823.28
2023-02-04T03:21:50.754Z,101830.22
2023-02-04T03:24:17.564Z,101825.03
2023-02-04T03:26:45.056Z,101836.28
2023-02-04T03:29:11.906Z,101840.59
2023-02-04T03:31:39.105Z,101836.28
2023-02-04T03:34:06.337Z,101847.53
2023-02-04T03:36:33.083Z,101839.72
2023-02-04T03:39:00.040Z,101840.59
2023-02-04T03:41:27.433Z,101840.59
2023-02-04T03:43:54.556Z,101847.53
2023-02-04T03:46:23.709Z,101853.59
2023-02-04T03:48:50.526Z,101861.41
2023-02-04T03:51:16.980Z,101868.31
2023-02-04T03:53:43.702Z,101889.09
2023-02-04T03:56:10.424Z,101896.88
2023-02-04T03:58:36.939Z,101899.47
2023-02-04T04:01:03.812Z,101899.47
2023-02-04T04:03:30.531Z,101890.81
2023-02-04T04:05:56.929Z,101887.34
2023-02-04T04:08:23.832Z,101889.06
2023-02-04T04:10:51.724Z,101882.16
2023-02-04T04:13:18.417Z,101887.34
2023-02-04T04:15:44.983Z,101890.78
2023-02-04T04:18:11.766Z,101893.41
2023-02-04T04:20:38.463Z,101902.06
2023-02-04T04:23:05.182Z,101910.69
2023-02-04T04:25:31.667Z,101910.69
2023-02-04T04:27:58.616Z,101911.56
2023-02-04T04:30:25.550Z,101908.97
2023-02-04T04:32:51.960Z,101909.81
2023-02-04T04:35:18.842Z,101919.34
2023-02-04T04:37:45.600Z,101915.88
2023-02-04T04:40:12.746Z,101925.41
2023-02-04T04:42:39.282Z,101923.66
2023-02-04T04:45:12.242Z,101924.53
2023-02-04T04:47:38.910Z,101934.03
2023-02-04T04:50:06.061Z,101936.66
2023-02-04T04:52:32.841Z,101952.19
2023-02-04T04:54:59.600Z,101937.47
2023-02-04T04:57:26.103Z,101929.69
2023-02-04T04:59:53.313Z,101927.13
2023-02-04T05:02:19.798Z,101930.56
2023-02-04T05:04:47.057Z,101916.75
2023-02-04T05:07:14.032Z,101918.47
2023-02-04T05:09:40.706Z,101922.78
2023-02-04T05:12:07.152Z,101918.47
2023-02-04T05:14:34.078Z,101925.38
2023-02-04T05:17:00.593Z,101919.34
2023-02-04T05:19:27.385Z,101927.09
2023-02-04T05:21:54.137Z,101921.91
2023-02-04T05:24:20.647Z,101924.50
2023-02-04T05:26:47.423Z,101928.81
2023-02-04T05:29:14.160Z,101931.41
2023-02-04T05:31:40.992Z,101933.13
2023-02-04T05:34:07.618Z,101935.72
2023-02-04T05:36:34.169Z,101940.91
2023-02-04T05:39:00.851Z,101940.06
2023-02-04T05:41:27.887Z,101946.06
2023-02-04T05:43:54.630Z,101954.72
2023-02-04T05:46:21.070Z,101958.16
2023-02-04T05:48:48.012Z,101962.50
2023-02-04T05:51:15.107Z,101967.69
2023-02-04T05:53:41.706Z,101966.81
2023-02-04T05:56:10.376Z,101963.31
2023-02-04T05:58:38.238Z,101962.44
2023-02-04T06:01:06.812Z,101968.50
2023-02-04T06:03:33.768Z,101963.34
2023-02-04T06:06:00.442Z,101971.13
2023-02-04T06:08:26.901Z,101970.28
2023-02-04T06:10:53.666Z,101978.03
2023-02-04T06:13:20.087Z,101979.78
2023-02-04T06:15:47.029Z,101978.91
2023-02-04T06:18:14.236Z,101990.97
2023-02-04T06:20:40.719Z,101990.16
2023-02-04T06:23:07.452Z,101999.63
2023-02-04T06:25:34.406Z,101992.69
2023-02-04T06:28:01.090Z,102000.47
2023-02-04T06:30:28.008Z,102004.78
2023-02-04T06:32:54.550Z,102011.66
2023-02-04T06:35:21.301Z,102014.25
2023-02-04T06:37:48.872Z,102015.09
2023-02-04T06:40:15.798Z,102016.84
2023-02-04T06:42:42.192Z,102016.81
2023-02-04T06:45:09.371Z,102019.41
2023-02-04T06:47:36.021Z,102028.88
2023-02-04T06:50:02.784Z,102033.19
2023-02-04T06:52:29.305Z,102032.28
2023-02-04T06:54:56.047Z,102039.19
2023-02-04T06:57:22.768Z,102037.47
2023-02-04T06:59:49.189Z,102038.31
2023-02-04T07:02:19.263Z,102041.78
2023-02-04T07:04:47.685Z,102050.44
2023-02-04T07:07:14.309Z,102047.84
2023-02-04T07:09:41.236Z,102045.25
2023-02-04T07:12:07.890Z,102055.63
2023-02-04T07:14:34.740Z,102057.31
2023-02-04T07:17:01.336Z,102053.00
2023-02-04T07:19:27.798Z,102056.44
2023-02-04T07:21:56.943Z,102063.31
2023-02-04T07:24:23.942Z,102067.63
2023-02-04T07:26:50.934Z,102080.47
2023-02-04T07:29:25.185Z,102085.66
2023-02-04T07:31:53.451Z,102089.25
2023-02-04T07:34:20.110Z,102094.44
2023-02-04T07:36:47.108Z,102097.91
2023-02-04T07:39:14.240Z,102101.41
2023-02-04T07:41:41.093Z,102097.06
2023-02-04T07:44:07.611Z,102101.44
2023-02-04T07:46:34.320Z,102110.06
2023-02-04T07:49:01.217Z,102113.50
2023-02-04T07:51:28.258Z,102128.16
2023-02-04T07:53:56.621Z,102129.91
2023-02-04T07:56:23.652Z,102129.94
2023-02-04T07:58:50.268Z,102129.09
2023-02-04T08:01:17.257Z,102132.56
2023-02-04T08:03:44.186Z,102139.47
2023-02-04T08:06:11.240Z,102128.28
2023-02-04T08:08:37.769Z,102144.72
2023-02-04T08:11:04.488Z,102143.03
2023-02-04T08:13:30.964Z,102136.97
2023-02-04T08:15:57.669Z,102137.03
2023-02-04T08:18:25.156Z,102150.00
2023-02-04T08:20:52.019Z,102150.91
2023-02-04T08:23:18.956Z,102150.03
2023-02-04T08:25:45.466Z,102144.91
2023-02-04T08:28:12.418Z,102151.81
2023-02-04T08:30:38.923Z,102153.59
2023-02-04T08:33:05.846Z,102157.06
2023-02-04T08:35:32.829Z,102160.56
2023-02-04T08:37:59.402Z,102165.78
2023-02-04T08:40:25.789Z,102170.97
2023-02-04T08:42:52.694Z,102173.59
2023-02-04T08:45:19.269Z,102171.84
2023-02-04T08:47:46.010Z,102173.59
2023-02-04T08:50:13.297Z,102177.06
2023-02-04T08:52:39.890Z,102176.22
2023-02-04T08:55:06.984Z,102180.59
2023-02-04T08:57:34.884Z,102186.63
2023-02-04T09:00:02.385Z,102201.22
2023-02-04T09:02:28.890Z,102197.88
2023-02-04T09:04:55.992Z,102200.50
2023-02-04T09:07:22.554Z,102201.41
2023-02-04T09:09:49.539Z,102196.28
2023-02-04T09:12:16.246Z,102201.56
2023-02-04T09:14:42.855Z,102197.22
2023-02-04T09:17:09.891Z,102199.03
2023-02-04T09:19:36.340Z,102201.66
2023-02-04T09:22:03.365Z,102211.22
2023-02-04T09:24:30.364Z,102211.19
2023-02-04T09:26:57.108Z,102210.38
2023-02-04T09:29:24.030Z,102207.75
2023-02-04T09:31:50.605Z,102214.75
2023-02-04T09:34:17.291Z,102209.53
2023-02-04T09:36:44.614Z,102203.44
2023-02-04T09:39:11.188Z,102195.63
2023-02-04T09:41:42.505Z,102206.03
2023-02-04T09:44:15.708Z,102202.56
2023-02-04T09:46:49.895Z,102203.44
2023-02-04T09:49:17.269Z,102212.09
2023-02-04T09:51:46.176Z,102222.50
2023-02-04T09:54:15.562Z,102228.53
2023-02-04T09:56:42.449Z,102226.81
2023-02-04T09:59:16.332Z,102231.16
2023-02-04T10:01:43.278Z,102231.16
2023-02-04T10:04:15.178Z,102237.28
2023-02-04T10:06:43.543Z,102240.75
2023-02-04T10:09:12.416Z,102238.97
2023-02-04T10:11:41.033Z,102234.53
2023-02-04T10:14:14.551Z,102235.31
2023-02-04T10:16:43.764Z,102230.88
2023-02-04T10:19:15.867Z,102237.13
2023-02-04T10:21:45.264Z,102247.56
2023-02-04T10:24:21.283Z,102245.00
2023-02-04T10:26:48.147Z,102241.59
2023-02-04T10:29:21.374Z,102253.72
2023-02-04T10:31:50.469Z,102248.56
2023-02-04T10:34:32.719Z,102259.84
2023-02-04T10:36:59.535Z,102259.81
2023-02-04T10:39:30.554Z,102266.78
2023-02-04T10:41:59.645Z,102262.44
2023-02-04T10:44:26.581Z,102268.50
2023-02-04T10:47:00.467Z,102271.09
2023-02-04T10:49:27.022Z,102267.63
2023-02-04T10:51:54.040Z,102264.16
2023-02-04T10:54:32.155Z,102263.31
2023-02-04T10:57:16.053Z,102266.75
2023-02-04T10:59:44.019Z,102265.00
2023-02-04T11:02:48.101Z,102260.66
2023-02-04T11:05:21.399Z,102252.78
2023-02-04T11:07:50.091Z,102259.72
2023-02-04T11:10:23.729Z,102250.06
2023-02-04T11:12:53.540Z,102256.72
2023-02-04T11:15:49.168Z,102249.69
2023-02-04T11:18:20.127Z,102255.78
2023-02-04T11:20:48.469Z,102254.22
2023-02-04T11:23:16.738Z,102244.59
2023-02-04T11:25:43.853Z,102245.63
2023-02-04T11:28:25.329Z,102248.97
2023-02-04T11:31:04.051Z,102250.56
2023-02-04T11:33:42.015Z,102253.06
2023-02-04T11:36:12.187Z,102248.69
2023-02-04T11:38:39.721Z,102262.72
2023-02-04T11:41:06.630Z,102272.16
2023-02-04T11:43:34.984Z,102261.34
2023-02-04T11:46:16.646Z,102258.75
2023-02-04T11:48:44.242Z,102255.34
2023-02-04T11:51:18.582Z,102252.09
2023-02-04T11:53:51.428Z,102246.69
2023-02-04T11:56:23.439Z,102246.47
2023-02-04T11:58:50.842Z,102250.63
2023-02-04T12:01:18.757Z,102245.00
2023-02-04T12:03:50.950Z,102247.28
2023-02-04T12:06:25.705Z,102250.78
2023-02-04T12:08:52.760Z,102240.66
2023-02-04T12:11:32.893Z,102240.94
2023-02-04T12:14:07.757Z,102245.56
2023-02-04T12:16:44.835Z,102240.63
2023-02-04T12:19:12.776Z,102241.44
2023-02-04T12:21:39.978Z,102247.97
2023-02-04T12:24:06.760Z,102243.84
2023-02-04T12:26:33.283Z,102254.81
2023-02-04T12:29:02.985Z,102255.94
2023-02-04T12:31:30.635Z,102262.09
2023-02-04T12:33:57.862Z,102259.50
2023-02-04T12:36:27.688Z,102261.31
2023-02-04T12:38:54.362Z,102269.41
2023-02-04T12:41:20.862Z,102265.75
2023-02-04T12:43:50.438Z,102264.88
2023-02-04T12:46:17.734Z,102268.28
2023-02-04T12:48:44.459Z,102266.56
2023-02-04T12:51:11.498Z,102264.81
2023-02-04T12:53:38.018Z,102258.91
2023-02-04T12:56:05.141Z,102261.72
2023-02-04T12:58:31.606Z,102270.31
2023-02-04T13:00:58.179Z,102263.47
2023-02-04T13:03:25.217Z,102267.75
2023-02-04T13:05:52.006Z,102279.03
2023-02-04T13:08:18.567Z,102266.28
2023-02-04T13:10:45.351Z,102273.94
2023-02-04T13:13:12.053Z,102267.94
2023-02-04T13:15:38.578Z,102263.88
2023-02-04T13:18:05.200Z,102265.97
2023-02-04T13:20:31.986Z,102256.81
2023-02-04T13:22:58.690Z,102253.34
2023-02-04T13:25:25.139Z,102252.25
2023-02-04T13:27:51.795Z,102255.16
2023-02-04T13:30:19.176Z,102250.41
2023-02-04T13:32:46.006Z,102255.84
2023-02-04T13:35:12.706Z,102257.38
2023-02-04T13:37:39.503Z,102261.03
2023-02-04T13:40:08.316Z,102253.25
2023-02-04T13:42:35.906Z,102254.00
2023-02-04T13:45:07.552Z,102264.31
2023-02-04T13:47:34.645Z,102268.81
2023-02-04T13:50:01.735Z,102257.00
2023-02-04T13:52:28.267Z,102255.09
2023-02-04T13:54:55.458Z,102271.50
2023-02-04T13:57:23.108Z,102272.41
2023-02-04T13:59:50.231Z,102275.13
2023-02-04T14:02:16.880Z,102271.91
2023-02-04T14:04:43.922Z,102272.91
2023-02-04T14:07:10.425Z,102274.44
2023-02-04T14:09:37.093Z,102270.97
2023-02-04T14:12:03.906Z,102276.44
2023-02-04T14:14:30.369Z,102277.69
2023-02-04T14:16:57.074Z,102286.28
2023-02-04T14:19:27.506Z,102278.22
2023-02-04T14:21:54.975Z,102280.91
2023-02-04T14:24:21.681Z,102271.06
2023-02-04T14:26:48.683Z,102273.97
2023-02-04T14:29:15.132Z,102271.88
2023-02-04T14:31:42.274Z,102268.63
2023-02-04T14:34:09.222Z,102267.13
2023-02-04T14:36:35.708Z,102272.41
2023-02-04T14:39:03.175Z,102264.25
2023-02-04T14:41:31.142Z,102263.09
2023-02-04T14:43:57.644Z,102262.06
2023-02-04T14:46:24.739Z,102263.28
2023-02-04T14:48:52.121Z,102264.03
2023-02-04T14:51:19.498Z,102265.75
2023-02-04T14:53:48.728Z,102266.53
2023-02-04T14:56:16.210Z,102268.66
2023-02-04T14:58:42.739Z,102276.72
2023-02-04T15:01:09.628Z,102272.09
2023-02-04T15:03:36.422Z,102283.28
2023-02-04T15:06:03.092Z,102283.56
2023-02-04T15:08:29.933Z,102278.63
2023-02-04T15:10:57.290Z,102283.34
2023-02-04T15:13:24.005Z,102288.84
2023-02-04T15:15:50.417Z,102292.50
2023-02-04T15:18:17.094Z,102290.00
2023-02-04T15:20:43.742Z,102293.34
2023-02-04T15:23:12.989Z,102298.16
2023-02-04T15:25:40.124Z,102304.72
2023-02-04T15:28:07.476Z,102299.09
2023-02-04T15:30:34.451Z,102292.84
2023-02-04T15:33:01.708Z,102284.91
2023-02-04T15:35:29.269Z,102286.53
2023-02-04T15:37:55.908Z,102303.44
2023-02-04T15:40:22.611Z,102289.19
2023-02-04T15:42:50.562Z,102297.72
2023-02-04T15:45:17.272Z,102306.91
2023-02-04T15:47:44.281Z,102303.25
2023-02-04T15:50:12.591Z,102305.13
2023-02-04T15:52:39.499Z,102302.66
2023-02-04T15:55:06.485Z,102305.25
2023-02-04T15:57:33.094Z,102307.00
2023-02-04T15:59:59.512Z,102314.88
2023-02-04T16:02:26.053Z,102313.19
2023-02-04T16:04:53.194Z,102308.88
2023-02-04T16:07:20.024Z,102318.50
2023-02-04T16:09:46.839Z,102327.28
2023-02-04T16:12:13.374Z,102336.00
2023-02-04T16:14:39.898Z,102336.06
2023-02-04T16:17:08.189Z,102345.66
2023-02-04T16:19:34.779Z,102345.66
2023-02-04T16:22:01.895Z,102348.28
2023-02-04T16:24:28.619Z,102344.81
2023-02-04T16:26:55.049Z,102349.19
2023-02-04T16:29:21.775Z,102350.94
2023-02-04T16:31:48.857Z,102350.06
2023-02-04T16:34:15.315Z,102346.59
2023-02-04T16:36:42.216Z,102356.09
2023-02-04T16:39:09.167Z,102352.63
2023-02-04T16:41:35.660Z,102358.69
2023-02-04T16:44:02.959Z,102359.53
2023-02-04T16:46:31.808Z,102362.97
2023-02-04T16:48:58.319Z,102362.09
2023-02-04T16:51:25.292Z,102365.53
2023-02-04T16:53:52.314Z,102369.81
2023-02-04T16:56:18.873Z,102379.34
2023-02-04T16:58:45.572Z,102388.84
2023-02-04T17:01:12.266Z,102385.31
2023-02-04T17:03:41.778Z,102389.56
2023-02-04T17:06:08.397Z,102390.44
2023-02-04T17:08:35.187Z,102386.94
2023-02-04T17:11:20.451Z,102387.75
2023-02-04T17:13:47.078Z,102385.06
2023-02-04T17:16:13.623Z,102381.56
2023-02-04T17:18:40.552Z,102375.41
2023-02-04T17:21:07.034Z,102383.22
2023-02-04T17:23:35.677Z,102377.84
2023-02-04T17:26:02.272Z,102379.53
2023-02-04T17:28:28.864Z,102381.31
2023-02-04T17:30:55.711Z,102379.50
2023-02-04T17:33:23.145Z,102376.03
2023-02-04T17:35:49.703Z,102379.38
2023-02-04T17:38:16.252Z,102384.53
2023-02-04T17:40:43.079Z,102383.50
2023-02-04T17:43:09.547Z,102386.09
2023-02-04T17:45:36.916Z,102387.75
2023-02-04T17:48:05.162Z,102385.16
2023-02-04T17:53:04.727Z,102392.84
2023-02-04T17:55:33.832Z,102398.84
2023-02-04T17:58:22.226Z,102397.84
2023-02-04T18:00:49.463Z,102402.22
2023-02-04T18:03:21.100Z,102402.19
2023-02-04T18:05:51.621Z,102402.00
2023-02-04T18:08:26.658Z,102398.59
2023-02-04T18:10:55.462Z,102405.25
2023-02-04T18:13:33.295Z,102404.53
2023-02-04T18:16:07.990Z,102403.69
2023-02-04T18:18:40.484Z,102402.91
2023-02-04T18:21:19.642Z,102398.44
2023-02-04T18:23:46.595Z,102392.44
2023-02-04T18:26:17.897Z,102392.09
2023-02-04T18:28:49.022Z,102389.59
2023-02-04T18:31:29.632Z,102397.34
2023-02-04T18:33:56.746Z,102404.00
2023-02-04T18:36:24.418Z,102403.81
2023-02-04T18:38:51.231Z,102412.84
2023-02-04T18:41:17.835Z,102411.13
2023-02-04T18:43:50.401Z,102406.06
2023-02-04T18:46:29.911Z,102406.00
2023-02-04T18:49:03.224Z,102404.25
2023-02-04T18:51:37.948Z,102404.28
2023-02-04T18:54:25.380Z,102403.31
2023-02-04T18:56:53.533Z,102411.00
2023-02-04T18:59:21.210Z,102408.44
2023-02-04T19:01:48.809Z,102411.00
2023-02-04T19:04:22.582Z,102408.38
2023-02-04T19:06:52.162Z,102411.88
2023-02-04T19:09:37.278Z,102417.03
2023-02-04T19:12:19.925Z,102419.66
2023-02-04T19:14:46.561Z,102417.03
2023-02-04T19:17:29.825Z,102415.06
2023-02-04T19:20:08.239Z,102416.00
2023-02-04T19:22:46.161Z,102413.53
2023-02-04T19:25:28.452Z,102419.56
2023-02-04T19:27:57.903Z,102431.69
2023-02-04T19:30:27.526Z,102429.06
2023-02-04T19:33:00.951Z,102423.91
2023-02-04T19:35:35.398Z,102429.06
2023-02-04T19:38:29.181Z,102424.72
2023-02-04T19:40:55.996Z,102427.28
2023-02-04T19:43:35.739Z,102423.63
2023-02-04T19:46:18.620Z,102416.06
2023-02-04T19:48:46.864Z,102423.63
2023-02-04T19:51:23.724Z,102420.13
2023-02-04T19:53:52.166Z,102430.44
2023-02-04T19:56:39.599Z,102432.31
2023-02-04T19:59:36.113Z,102427.13
2023-02-04T20:02:21.987Z,102427.06
2023-02-04T20:04:53.831Z,102426.28
2023-02-04T20:07:25.877Z,102421.06
2023-02-04T20:10:22.521Z,102420.41
2023-02-04T20:12:59.246Z,102418.69
2023-02-04T20:15:25.898Z,102420.25
2023-02-04T20:17:52.917Z,102427.91
2023-02-04T20:20:31.660Z,102442.59
2023-02-04T20:23:28.487Z,102429.88
2023-02-04T20:25:55.323Z,102425.59
2023-02-04T20:28:30.200Z,102427.34
2023-02-04T20:30:59.434Z,102430.72
2023-02-04T20:33:45.039Z,102434.25
2023-02-04T20:36:26.748Z,102445.09
2023-02-04T20:39:02.389Z,102445.19
2023-02-04T20:41:34.932Z,102448.88
2023-02-04T20:44:02.362Z,102460.63
2023-02-04T20:46:29.024Z,102456.50
2023-02-04T20:48:55.701Z,102462.44
2023-02-04T20:51:25.024Z,102471.91
2023-02-04T20:54:02.611Z,102472.88
2023-02-04T20:56:35.228Z,102477.09
2023-02-04T20:59:16.956Z,102471.09
2023-02-04T21:01:46.233Z,102478.72
2023-02-04T21:04:38.409Z,102477.16
2023-02-04T21:07:34.496Z,102477.13
2023-02-04T21:10:04.075Z,102473.44
2023-02-04T21:12:31.980Z,102481.41
2023-02-04T21:15:01.025Z,102470.22
2023-02-04T21:17:27.604Z,102482.28
2023-02-04T21:19:57.914Z,102481.31
2023-02-04T21:22:24.545Z,102487.34
2023-02-04T21:24:51.249Z,102489.16
2023-02-04T21:27:21.965Z,102486.63
2023-02-04T21:29:48.710Z,102490.09
2023-02-04T21:32:15.620Z,102487.59
2023-02-04T21:34:42.341Z,102481.44
2023-02-04T21:37:08.798Z,102477.16
2023-02-04T21:39:35.804Z,102478.06
2023-02-04T21:42:11.620Z,102473.63
2023-02-04T21:44:39.545Z,102474.59
2023-02-04T21:47:06.227Z,102469.25
2023-02-04T21:49:33.277Z,102466.72
2023-02-04T21:52:00.143Z,102459.91
2023-02-04T21:54:26.739Z,102458.97
2023-02-04T21:56:53.553Z,102465.81
2023-02-04T21:59:20.440Z,102464.13
2023-02-04T22:01:47.258Z,102461.53
2023-02-04T22:04:14.630Z,102476.28
2023-02-04T22:06:41.410Z,102472.75
2023-02-04T22:09:07.985Z,102484.84
2023-02-04T22:11:34.905Z,102471.88
2023-02-04T22:14:01.611Z,102470.19
2023-02-04T22:16:28.179Z,102471.91
2023-02-04T22:18:54.725Z,102473.53
2023-02-04T22:21:23.189Z,102470.97
2023-02-04T22:23:49.716Z,102470.00
2023-02-04T22:26:16.726Z,102470.69
2023-02-04T22:28:43.526Z,102461.38
2023-02-04T22:31:10.185Z,102465.66
2023-02-04T22:33:36.937Z,102469.94
2023-02-04T22:36:03.818Z,102472.59
2023-02-04T22:38:31.210Z,102470.78
2023-02-04T22:40:57.854Z,102474.25
2023-02-04T22:43:24.530Z,102470.75
2023-02-04T22:45:52.920Z,102467.34
2023-02-04T22:48:19.781Z,102470.00
2023-02-04T22:50:46.445Z,102465.63
2023-02-04T22:53:12.860Z,102462.06
2023-02-04T22:55:39.577Z,102456.75
2023-02-04T22:58:06.231Z,102460.16
2023-02-04T23:00:33.081Z,102463.56
2023-02-04T23:03:00.249Z,102470.22
2023-02-04T23:05:27.340Z,102472.94
2023-02-04T23:07:54.064Z,102467.81
2023-02-04T23:10:20.777Z,102474.72
2023-02-04T23:12:47.396Z,102473.00
2023-02-04T23:15:13.967Z,102473.63
2023-02-04T23:17:43.153Z,102479.44
2023-02-04T23:20:10.380Z,102474.44
2023-02-04T23:22:37.520Z,102476.06
2023-02-04T23:25:06.401Z,102470.84
2023-02-04T23:27:33.390Z,102481.09
2023-02-04T23:30:00.280Z,102468.91
2023-02-04T23:32:27.596Z,102472.38
2023-02-04T23:34:54.948Z,102478.47
2023-02-04T23:37:21.637Z,102476.56
2023-02-04T23:39:48.248Z,102477.38
2023-02-04T23:42:16.730Z,102484.16
2023-02-04T23:44:43.246Z,102483.31
2023-02-04T23:47:10.149Z,102477.28
2023-02-04T23:49:36.749Z,102472.88
2023-02-04T23:52:03.358Z,102476.44
2023-02-04T23:54:30.113Z,102482.47
2023-02-04T23:56:56.824Z,102480.66
2023-02-04T23:59:23.734Z,102483.75
